createdAt,value
2023-04-13T00:00:32.311Z,99542.66
2023-04-13T00:03:36.212Z,99534.09
2023-04-13T00:06:39.121Z,99537.94
2023-04-13T00:09:41.894Z,99533.38
2023-04-13T00:12:47.496Z,99528.09
2023-04-13T00:15:53.596Z,99533.72
2023-04-13T00:18:56.370Z,99524.25
2023-04-13T00:22:00.129Z,99536.22
2023-04-13T00:25:02.770Z,99533.28
2023-04-13T00:28:06.375Z,99522.09
2023-04-13T00:31:10.667Z,99523.03
2023-04-13T00:34:13.421Z,99525.63
2023-04-13T00:37:16.086Z,99532.94
2023-04-13T00:40:19.533Z,99523.19
2023-04-13T00:43:22.247Z,99519.63
2023-04-13T00:46:26.396Z,99520.41
2023-04-13T00:49:30.517Z,99519.41
2023-04-13T00:52:38.076Z,99512.28
2023-04-13T00:55:42.498Z,99516.50
2023-04-13T00:58:45.541Z,99513.69
2023-04-13T01:01:51.055Z,99515.31
2023-04-13T01:04:55.022Z,99510.03
2023-04-13T01:08:08.853Z,99513.91
2023-04-13T01:11:18.763Z,99502.59
2023-04-13T01:14:30.681Z,99514.84
2023-04-13T01:17:37.796Z,99521.22
2023-04-13T01:20:45.211Z,99520.53
2023-04-13T01:23:56.993Z,99527.34
2023-04-13T01:27:09.462Z,99523.75
2023-04-13T01:30:14.566Z,99521.38
2023-04-13T01:33:17.381Z,99527.78
2023-04-13T01:36:20.869Z,99524.69
2023-04-13T01:39:25.462Z,99511.13
2023-04-13T01:42:28.106Z,99523.38
2023-04-13T01:45:40.442Z,99521.66
2023-04-13T01:48:48.128Z,99518.56
2023-04-13T01:51:53.355Z,99518.69
2023-04-13T01:54:57.853Z,99513.38
2023-04-13T01:58:01.879Z,99519.19
2023-04-13T02:01:08.550Z,99521.03
2023-04-13T02:04:11.770Z,99518.94
2023-04-13T02:07:14.531Z,99519.31
2023-04-13T02:10:17.194Z,99519.25
2023-04-13T02:13:19.832Z,99524.97
2023-04-13T02:16:25.151Z,99521.03
2023-04-13T02:19:27.831Z,99526.28
2023-04-13T02:22:30.487Z,99520.31
2023-04-13T02:25:33.125Z,99526.09
2023-04-13T02:28:35.848Z,99526.38
2023-04-13T02:31:43.609Z,99523.34
2023-04-13T02:34:46.387Z,99534.66
2023-04-13T02:37:49.182Z,99530.91
2023-04-13T02:40:55.572Z,99533.81
2023-04-13T02:43:58.517Z,99533.81
2023-04-13T02:47:02.708Z,99535.22
2023-04-13T02:50:06.692Z,99532.88
2023-04-13T02:53:09.550Z,99530.69
2023-04-13T02:56:12.229Z,99536.16
2023-04-13T02:59:16.545Z,99544.75
2023-04-13T03:02:20.764Z,99545.53
2023-04-13T03:05:24.042Z,99534.47
2023-04-13T03:08:27.325Z,99538.03
2023-04-13T03:11:29.965Z,99532.47
2023-04-13T03:14:33.133Z,99521.47
2023-04-13T03:17:40.291Z,99515.75
2023-04-13T03:20:43.879Z,99526.16
2023-04-13T03:23:46.652Z,99524.31
2023-04-13T03:26:49.271Z,99528.78
2023-04-13T03:29:51.888Z,99513.59
2023-04-13T03:32:56.025Z,99526.56
2023-04-13T03:35:59.024Z,99525.00
2023-04-13T03:39:01.944Z,99524.84
2023-04-13T03:42:04.765Z,99526.28
2023-04-13T03:45:08.492Z,99534.53
2023-04-13T03:48:12.600Z,99526.72
2023-04-13T03:51:16.191Z,99529.78
2023-04-13T03:54:18.814Z,99535.91
2023-04-13T03:57:22.462Z,99525.47
2023-04-13T04:00:25.727Z,99538.81
2023-04-13T04:03:30.209Z,99522.53
2023-04-13T04:06:32.888Z,99528.09
2023-04-13T04:09:35.875Z,99525.75
2023-04-13T04:12:38.521Z,99520.50
2023-04-13T04:15:41.196Z,99525.13
2023-04-13T04:18:45.232Z,99522.59
2023-04-13T04:21:47.883Z,99534.53
2023-04-13T04:24:52.501Z,99533.91
2023-04-13T04:27:57.641Z,99536.28
2023-04-13T04:31:01.259Z,99533.94
2023-04-13T04:34:05.303Z,99535.00
2023-04-13T04:37:19.505Z,99528.69
2023-04-13T04:40:23.347Z,99539.91
2023-04-13T04:43:27.084Z,99541.97
2023-04-13T04:46:29.903Z,99539.47
2023-04-13T04:49:34.029Z,99543.44
2023-04-13T04:52:36.677Z,99542.63
2023-04-13T04:55:39.769Z,99536.69
2023-04-13T04:58:42.384Z,99548.63
2023-04-13T05:01:45.248Z,99547.63
2023-04-13T05:04:49.348Z,99554.47
2023-04-13T05:07:52.236Z,99558.41
2023-04-13T05:10:54.941Z,99547.09
2023-04-13T05:13:57.785Z,99543.09
2023-04-13T05:17:01.302Z,99542.47
2023-04-13T05:20:06.791Z,99556.19
2023-04-13T05:23:09.723Z,99553.41
2023-04-13T05:26:13.468Z,99550.00
2023-04-13T05:29:16.111Z,99557.84
2023-04-13T05:32:18.764Z,99549.28
2023-04-13T05:35:23.491Z,99562.38
2023-04-13T05:38:26.245Z,99569.50
2023-04-13T05:41:28.924Z,99563.00
2023-04-13T05:44:31.572Z,99565.16
2023-04-13T05:47:34.231Z,99567.44
2023-04-13T05:50:38.407Z,99567.53
2023-04-13T05:53:41.361Z,99563.03
2023-04-13T05:56:44.003Z,99574.00
2023-04-13T05:59:46.938Z,99581.09
2023-04-13T06:02:50.611Z,99581.56
2023-04-13T06:05:54.750Z,99579.00
2023-04-13T06:08:57.633Z,99580.28
2023-04-13T06:12:00.461Z,99584.47
2023-04-13T06:15:04.015Z,99587.78
2023-04-13T06:18:07.154Z,99580.41
2023-04-13T06:21:11.475Z,99588.34
2023-04-13T06:24:14.146Z,99590.25
2023-04-13T06:27:16.955Z,99593.59
2023-04-13T06:30:19.707Z,99590.09
2023-04-13T06:33:23.086Z,99588.47
2023-04-13T06:36:27.170Z,99572.72
2023-04-13T06:39:31.766Z,99580.78
2023-04-13T06:42:36.558Z,99579.56
2023-04-13T06:45:39.174Z,99581.13
2023-04-13T06:48:41.870Z,99576.84
2023-04-13T06:51:45.860Z,99577.31
2023-04-13T06:54:48.488Z,99584.28
2023-04-13T06:57:51.128Z,99579.19
2023-04-13T07:00:53.777Z,99576.75
2023-04-13T07:03:56.459Z,99575.06
2023-04-13T07:07:00.584Z,99579.97
2023-04-13T07:10:03.306Z,99587.97
2023-04-13T07:13:06.864Z,99590.13
2023-04-13T07:16:12.140Z,99584.97
2023-04-13T07:19:14.875Z,99599.34
2023-04-13T07:22:18.917Z,99598.19
2023-04-13T07:25:21.983Z,99583.50
2023-04-13T07:28:25.495Z,99594.97
2023-04-13T07:31:28.679Z,99591.69
2023-04-13T07:34:31.779Z,99594.38
2023-04-13T07:37:35.804Z,99597.31
2023-04-13T07:40:38.450Z,99596.81
2023-04-13T07:43:41.135Z,99601.78
2023-04-13T07:46:43.893Z,99604.72
2023-04-13T07:49:46.564Z,99607.59
2023-04-13T07:52:50.621Z,99604.00
2023-04-13T07:55:53.263Z,99610.94
2023-04-13T07:58:55.909Z,99620.00
2023-04-13T08:01:59.441Z,99631.94
2023-04-13T08:05:02.461Z,99621.13
2023-04-13T08:08:06.991Z,99635.34
2023-04-13T08:11:09.673Z,99633.31
2023-04-13T08:14:12.371Z,99641.47
2023-04-13T08:17:15.023Z,99630.53
2023-04-13T08:20:18.480Z,99638.16
2023-04-13T08:23:22.555Z,99622.78
2023-04-13T08:26:26.291Z,99645.06
2023-04-13T08:29:29.768Z,99647.66
2023-04-13T08:32:32.413Z,99652.25
2023-04-13T08:35:38.980Z,99658.13
2023-04-13T08:38:43.038Z,99664.91
2023-04-13T08:41:47.078Z,99666.25
2023-04-13T08:44:52.503Z,99654.97
2023-04-13T08:47:55.270Z,99673.78
2023-04-13T08:51:01.106Z,99673.97
2023-04-13T08:54:05.526Z,99675.84
2023-04-13T08:57:10.610Z,99681.63
2023-04-13T09:00:18.001Z,99694.13
2023-04-13T09:03:25.744Z,99690.97
2023-04-13T09:06:33.158Z,99698.75
2023-04-13T09:09:39.796Z,99701.97
2023-04-13T09:12:42.435Z,99711.19
2023-04-13T09:15:47.245Z,99714.44
2023-04-13T09:18:51.603Z,99718.06
2023-04-13T09:21:54.235Z,99717.72
2023-04-13T09:24:59.044Z,99725.06
2023-04-13T09:28:01.674Z,99741.34
2023-04-13T09:31:05.525Z,99725.44
2023-04-13T09:34:08.997Z,99731.88
2023-04-13T09:37:13.876Z,99743.66
2023-04-13T09:40:19.837Z,99735.16
2023-04-13T09:43:22.589Z,99736.16
2023-04-13T09:46:25.656Z,99739.25
2023-04-13T09:49:38.045Z,99743.81
2023-04-13T09:52:41.333Z,99745.66
2023-04-13T09:55:47.355Z,99749.09
2023-04-13T09:58:51.484Z,99742.84
2023-04-13T10:01:54.794Z,99757.53
2023-04-13T10:04:58.358Z,99767.31
2023-04-13T10:08:02.561Z,99761.13
2023-04-13T10:11:11.691Z,99766.38
2023-04-13T10:14:17.299Z,99768.25
2023-04-13T10:17:32.556Z,99765.84
2023-04-13T10:20:36.519Z,99778.25
2023-04-13T10:23:39.955Z,99780.44
2023-04-13T10:26:45.111Z,99774.63
2023-04-13T10:29:48.511Z,99793.97
2023-04-13T10:33:02.367Z,99779.59
2023-04-13T10:36:05.978Z,99787.34
2023-04-13T10:39:09.516Z,99783.03
2023-04-13T10:42:14.473Z,99783.25
2023-04-13T10:45:20.342Z,99796.03
2023-04-13T10:48:23.064Z,99796.31
2023-04-13T10:51:25.975Z,99798.25
2023-04-13T10:54:30.191Z,99800.34
2023-04-13T10:57:36.565Z,99805.69
2023-04-13T11:00:46.434Z,99796.84
2023-04-13T11:04:03.919Z,99807.44
2023-04-13T11:07:08.859Z,99813.50
2023-04-13T11:10:11.919Z,99811.84
2023-04-13T11:13:16.246Z,99819.63
2023-04-13T11:16:19.036Z,99811.34
2023-04-13T11:19:21.701Z,99820.44
2023-04-13T11:22:27.837Z,99829.56
2023-04-13T11:25:31.551Z,99840.34
2023-04-13T11:28:40.912Z,99851.72
2023-04-13T11:31:43.791Z,99842.34
2023-04-13T11:34:48.592Z,99851.91
2023-04-13T11:37:53.952Z,99856.56
2023-04-13T11:41:15.162Z,99849.72
2023-04-13T11:44:20.730Z,99853.47
2023-04-13T11:47:23.832Z,99866.66
2023-04-13T11:50:26.953Z,99869.75
2023-04-13T11:53:30.074Z,99865.38
2023-04-13T11:56:32.876Z,99866.53
2023-04-13T11:59:38.655Z,99861.72
2023-04-13T12:02:59.930Z,99879.22
2023-04-13T12:06:05.079Z,99859.16
2023-04-13T12:09:13.470Z,99868.97
2023-04-13T12:15:43.490Z,99890.41
2023-04-13T12:18:52.215Z,99882.63
2023-04-13T12:21:57.267Z,99881.25
2023-04-13T12:25:02.013Z,99881.56
2023-04-13T12:28:05.166Z,99896.56
2023-04-13T12:31:12.160Z,99880.47
2023-04-13T12:34:14.882Z,99895.13
2023-04-13T12:37:17.557Z,99899.72
2023-04-13T12:40:20.335Z,99902.63
2023-04-13T12:43:23.026Z,99908.66
2023-04-13T12:46:27.214Z,99906.97
2023-04-13T12:49:29.976Z,99915.75
2023-04-13T12:52:32.717Z,99912.03
2023-04-13T12:55:35.575Z,99915.78
2023-04-13T12:58:38.341Z,99924.50
2023-04-13T13:01:42.348Z,99923.09
2023-04-13T13:04:45.141Z,99928.69
2023-04-13T13:07:48.056Z,99934.03
2023-04-13T13:10:50.921Z,99936.06
2023-04-13T13:13:53.524Z,99945.34
2023-04-13T13:16:57.651Z,99948.34
2023-04-13T13:20:01.291Z,99949.06
2023-04-13T13:23:05.191Z,99967.16
2023-04-13T13:26:23.241Z,99967.75
2023-04-13T13:29:30.800Z,99969.56
2023-04-13T13:32:35.448Z,99976.03
2023-04-13T13:35:38.122Z,99978.28
2023-04-13T13:38:40.754Z,99971.78
2023-04-13T13:41:43.444Z,99981.94
2023-04-13T13:44:46.245Z,99983.69
2023-04-13T13:47:54.110Z,99994.50
2023-04-13T13:50:56.832Z,99984.19
2023-04-13T13:53:59.801Z,99985.56
2023-04-13T13:57:03.057Z,99988.66
2023-04-13T14:00:13.289Z,99995.13
2023-04-13T14:03:17.976Z,99994.41
2023-04-13T14:06:21.160Z,100007.75
2023-04-13T14:09:23.818Z,100009.97
2023-04-13T14:12:26.437Z,100020.59
2023-04-13T14:15:29.266Z,100018.47
2023-04-13T14:18:33.431Z,100026.91
2023-04-13T14:21:36.130Z,100032.56
2023-04-13T14:24:38.725Z,100030.72
2023-04-13T14:27:41.373Z,100043.56
2023-04-13T14:30:44.838Z,100034.44
2023-04-13T14:33:48.846Z,100031.13
2023-04-13T14:36:54.318Z,100037.09
2023-04-13T14:39:57.191Z,100042.63
2023-04-13T14:42:59.840Z,100040.34
2023-04-13T14:46:03.310Z,100048.72
2023-04-13T14:49:07.365Z,100057.09
2023-04-13T14:52:10.190Z,100062.78
2023-04-13T14:55:13.693Z,100074.69
2023-04-13T14:58:16.584Z,100082.34
2023-04-13T15:01:21.872Z,100103.03
2023-04-13T15:04:26.143Z,100103.72
2023-04-13T15:07:29.854Z,100119.91
2023-04-13T15:10:34.610Z,100121.41
2023-04-13T15:13:37.860Z,100120.00
2023-04-13T15:16:40.613Z,100117.13
2023-04-13T15:19:44.654Z,100125.19
2023-04-13T15:22:47.306Z,100134.19
2023-04-13T15:25:49.923Z,100141.72
2023-04-13T15:28:52.607Z,100139.38
2023-04-13T15:31:55.278Z,100138.63
2023-04-13T15:34:59.345Z,100147.56
2023-04-13T15:38:02.951Z,100143.47
2023-04-13T15:41:05.851Z,100148.44
2023-04-13T15:44:08.517Z,100157.50
2023-04-13T15:47:11.129Z,100152.53
2023-04-13T15:50:15.307Z,100158.31
2023-04-13T15:53:17.987Z,100153.31
2023-04-13T15:56:21.154Z,100167.00
2023-04-13T15:59:25.061Z,100176.31
2023-04-13T16:02:29.545Z,100178.75
2023-04-13T16:05:33.619Z,100186.00
2023-04-13T16:08:36.234Z,100195.22
2023-04-13T16:11:39.482Z,100209.00
2023-04-13T16:14:45.035Z,100210.03
2023-04-13T16:17:48.228Z,100211.06
2023-04-13T16:20:54.170Z,100224.00
2023-04-13T16:23:57.036Z,100230.28
2023-04-13T16:26:59.806Z,100231.69
2023-04-13T16:30:04.334Z,100232.69
2023-04-13T16:33:07.364Z,100237.03
2023-04-13T16:36:11.703Z,100246.44
2023-04-13T16:39:14.354Z,100227.53
2023-04-13T16:42:17.816Z,100237.88
2023-04-13T16:45:20.800Z,100240.09
2023-04-13T16:48:23.633Z,100248.16
2023-04-13T16:51:27.999Z,100253.28
2023-04-13T16:54:30.829Z,100257.22
2023-04-13T16:57:34.094Z,100262.81
2023-04-13T17:00:36.763Z,100267.69
2023-04-13T17:03:39.509Z,100267.09
2023-04-13T17:06:43.544Z,100270.78
2023-04-13T17:09:46.167Z,100269.59
2023-04-13T17:12:48.860Z,100278.28
2023-04-13T17:15:51.725Z,100298.69
2023-04-13T17:18:54.401Z,100311.31
2023-04-13T17:21:58.408Z,100315.06
2023-04-13T17:25:01.151Z,100316.22
2023-04-13T17:28:03.800Z,100317.41
2023-04-13T17:31:07.581Z,100334.38
2023-04-13T17:34:10.445Z,100332.13
2023-04-13T17:37:14.522Z,100335.47
2023-04-13T17:40:17.203Z,100335.78
2023-04-13T17:43:19.824Z,100330.53
2023-04-13T17:46:22.455Z,100327.72
2023-04-13T17:49:26.103Z,100347.47
2023-04-13T17:52:30.470Z,100346.06
2023-04-13T17:55:33.274Z,100352.41
2023-04-13T17:58:36.044Z,100346.41
2023-04-13T18:01:38.732Z,100356.47
2023-04-13T18:04:41.443Z,100357.66
2023-04-13T18:07:45.962Z,100370.31
2023-04-13T18:10:48.667Z,100367.50
2023-04-13T18:13:51.442Z,100374.34
2023-04-13T18:16:54.101Z,100384.47
2023-04-13T18:19:56.751Z,100390.25
2023-04-13T18:23:00.834Z,100392.25
2023-04-13T18:26:03.580Z,100395.50
2023-04-13T18:29:06.292Z,100393.28
2023-04-13T18:32:09.631Z,100402.00
2023-04-13T18:35:13.297Z,100400.75
2023-04-13T18:38:17.387Z,100402.19
2023-04-13T18:41:20.017Z,100418.66
2023-04-13T18:44:22.665Z,100423.22
2023-04-13T18:47:26.926Z,100433.75
2023-04-13T18:50:29.825Z,100435.00
2023-04-13T18:53:33.869Z,100437.88
2023-04-13T18:56:36.591Z,100440.19
2023-04-13T18:59:39.289Z,100447.22
2023-04-13T19:02:46.334Z,100459.53
2023-04-13T19:05:49.279Z,100466.41
2023-04-13T19:08:53.294Z,100472.47
2023-04-13T19:12:01.178Z,100473.31
2023-04-13T19:15:04.140Z,100473.31
2023-04-13T19:18:07.699Z,100477.97
2023-04-13T19:21:10.329Z,100473.03
2023-04-13T19:24:14.393Z,100482.00
2023-04-13T19:27:17.152Z,100484.06
2023-04-13T19:30:20.088Z,100486.81
2023-04-13T19:33:22.764Z,100480.25
2023-04-13T19:36:26.050Z,100479.47
2023-04-13T19:39:30.071Z,100485.88
2023-04-13T19:42:33.443Z,100491.19
2023-04-13T19:45:36.391Z,100499.38
2023-04-13T19:48:40.264Z,100506.84
2023-04-13T19:51:43.000Z,100506.97
2023-04-13T19:54:47.288Z,100505.44
2023-04-13T19:57:49.929Z,100510.84
2023-04-13T20:00:52.591Z,100517.59
2023-04-13T20:03:55.442Z,100521.69
2023-04-13T20:06:58.171Z,100518.91
2023-04-13T20:10:02.180Z,100527.47
2023-04-13T20:13:04.824Z,100529.25
2023-04-13T20:16:07.728Z,100536.84
2023-04-13T20:19:11.216Z,100534.97
2023-04-13T20:22:14.326Z,100540.03
2023-04-13T20:25:18.460Z,100539.94
2023-04-13T20:28:21.469Z,100538.78
2023-04-13T20:31:25.008Z,100538.31
2023-04-13T20:34:28.102Z,100550.56
2023-04-13T20:37:30.717Z,100553.63
2023-04-13T20:40:36.158Z,100557.75
2023-04-13T20:43:39.319Z,100561.56
2023-04-13T20:46:49.211Z,100563.91
2023-04-13T20:49:54.439Z,100562.19
2023-04-13T20:52:59.659Z,100564.00
2023-04-13T20:56:03.949Z,100564.97
2023-04-13T20:59:07.403Z,100561.06
2023-04-13T21:02:10.701Z,100563.81
2023-04-13T21:05:13.997Z,100562.09
2023-04-13T21:08:16.717Z,100555.88
2023-04-13T21:11:21.268Z,100553.81
2023-04-13T21:14:24.750Z,100555.88
2023-04-13T21:17:27.495Z,100553.34
2023-04-13T21:20:30.386Z,100562.56
2023-04-13T21:23:33.048Z,100559.84
2023-04-13T21:26:37.131Z,100566.94
2023-04-13T21:29:39.751Z,100565.22
2023-04-13T21:32:42.493Z,100568.56
2023-04-13T21:35:45.183Z,100558.00
2023-04-13T21:38:47.806Z,100559.06
2023-04-13T21:41:51.830Z,100564.50
2023-04-13T21:44:55.959Z,100568.78
2023-04-13T21:47:58.585Z,100567.63
2023-04-13T21:51:01.982Z,100565.44
2023-04-13T21:54:05.024Z,100561.78
2023-04-13T21:57:09.786Z,100555.69
2023-04-13T22:00:14.334Z,100550.63
2023-04-13T22:03:17.589Z,100560.69
2023-04-13T22:06:20.456Z,100557.34
2023-04-13T22:09:23.181Z,100556.50
2023-04-13T22:12:27.224Z,100555.84
2023-04-13T22:15:29.880Z,100553.22
2023-04-13T22:18:32.628Z,100555.72
2023-04-13T22:21:36.813Z,100554.28
2023-04-13T22:24:39.496Z,100553.03
2023-04-13T22:27:43.865Z,100554.31
2023-04-13T22:30:47.226Z,100556.63
2023-04-13T22:33:49.891Z,100561.03
2023-04-13T22:36:53.357Z,100554.69
2023-04-13T22:39:55.989Z,100568.16
2023-04-13T22:42:59.978Z,100564.34
2023-04-13T22:46:02.859Z,100578.06
2023-04-13T22:49:05.547Z,100568.94
2023-04-13T22:52:08.537Z,100581.50
2023-04-13T22:55:11.324Z,100570.94
2023-04-13T22:58:15.318Z,100576.94
2023-04-13T23:01:17.994Z,100585.47
2023-04-13T23:04:20.747Z,100589.19
2023-04-13T23:07:23.505Z,100597.25
2023-04-13T23:10:26.162Z,100597.59
2023-04-13T23:13:30.176Z,100603.31
2023-04-13T23:16:33.849Z,100607.34
2023-04-13T23:19:36.539Z,100600.31
2023-04-13T23:22:39.196Z,100612.78
2023-04-13T23:25:41.876Z,100621.00
2023-04-13T23:28:46.935Z,100622.31
2023-04-13T23:31:49.625Z,100629.44
2023-04-13T23:34:52.725Z,100631.47
2023-04-13T23:37:55.415Z,100638.56
2023-04-13T23:40:58.424Z,100641.16
2023-04-13T23:44:02.708Z,100634.25
2023-04-13T23:47:06.195Z,100639.78
2023-04-13T23:50:09.302Z,100639.59
2023-04-13T23:53:12.171Z,100637.72
2023-04-13T23:56:14.807Z,100635.16
2023-04-13T23:59:18.963Z,100641.41
